Time;durP1;ratioP1;P1;durP2;ratioP2;P2;SDS_P1;SDS_P2;PMS_P1;PMS_P2;Temp;Humidity;BMP_temperature;BMP_pressure;BME280_temperature;BME280_humidity;BME280_pressure;Samples;Min_cycle;Max_cycle;Signal;HPM_P1;HPM_P2
2022/01/19 00:02:16;;;;;;;3.62;3.42;;;;;;;2.06;100.00;102745.56;4423973;32;20149;-75
2022/01/19 00:04:42;;;;;;;4.30;4.10;;;;;;;2.11;99.79;102755.16;4424757;32;20067;-75
2022/01/19 00:07:07;;;;;;;2.80;2.70;;;;;;;2.10;100.00;102762.91;4425418;32;20060;-75
2022/01/19 00:09:32;;;;;;;3.00;2.90;;;;;;;2.10;100.00;102766.34;4426047;32;20137;-76
2022/01/19 00:11:58;;;;;;;3.10;3.00;;;;;;;2.04;100.00;102766.25;4426138;32;22724;-76
2022/01/19 00:14:23;;;;;;;3.05;2.95;;;;;;;1.96;100.00;102742.81;4430188;32;20072;-73
2022/01/19 00:16:48;;;;;;;4.22;4.03;;;;;;;2.12;100.00;102754.28;4425558;32;20075;-75
2022/01/19 00:19:14;;;;;;;2.90;2.80;;;;;;;2.01;100.00;102732.56;4431077;32;20086;-75
2022/01/19 00:21:39;;;;;;;3.20;3.10;;;;;;;2.26;100.00;102745.88;4423144;32;20546;-75
2022/01/19 00:24:06;;;;;;;2.75;2.65;;;;;;;2.01;100.00;102710.97;4425040;32;20392;-76
2022/01/19 00:26:31;;;;;;;3.50;3.33;;;;;;;2.14;100.00;102720.66;4428253;32;20419;-74
2022/01/19 00:28:58;;;;;;;2.83;2.72;;;;;;;1.58;100.00;102620.53;4418778;32;20088;-75
2022/01/19 00:31:23;;;;;;;3.10;3.00;;;;;;;2.03;100.00;102660.94;4429209;32;20091;-74
2022/01/19 00:33:48;;;;;;;4.43;4.22;;;;;;;1.24;100.00;102526.84;4426519;32;20064;-74
2022/01/19 00:36:14;;;;;;;2.80;2.70;;;;;;;1.77;100.00;102606.19;4424778;32;20071;-74
2022/01/19 00:38:39;;;;;;;3.12;3.03;;;;;;;2.05;100.00;102668.72;4423589;32;20608;-75
2022/01/19 00:41:04;;;;;;;2.80;2.70;;;;;;;2.05;100.00;102637.66;4442093;32;20701;-75
2022/01/19 00:43:30;;;;;;;2.80;2.70;;;;;;;1.98;100.00;102640.16;4432799;32;20084;-75
2022/01/19 00:45:56;;;;;;;3.53;3.42;;;;;;;1.88;100.00;102635.66;4430865;32;20430;-75
2022/01/19 00:48:21;;;;;;;2.80;2.70;;;;;;;1.98;100.00;102668.66;4426900;32;20532;-75
2022/01/19 00:50:46;;;;;;;4.05;3.87;;;;;;;1.89;100.00;102678.84;4432288;32;20073;-75
2022/01/19 00:53:12;;;;;;;3.10;3.00;;;;;;;1.68;100.00;102660.37;4427276;32;20091;-75
2022/01/19 00:55:37;;;;;;;3.08;2.97;;;;;;;1.82;100.00;102689.94;4428431;32;20063;-76
2022/01/19 00:58:02;;;;;;;2.90;2.80;;;;;;;1.81;100.00;102685.62;4428618;32;20332;-75
2022/01/19 01:00:28;;;;;;;2.62;2.53;;;;;;;1.90;100.00;102683.16;4428254;32;20080;-75
2022/01/19 01:02:53;;;;;;;4.40;4.20;;;;;;;1.11;100.00;102537.88;4428285;32;20340;-75
2022/01/19 01:05:50;;;;;;;6.07;5.80;;;;;;;2.09;100.00;102684.34;4423056;32;20490;-75
2022/01/19 01:08:20;;;;;;;2.60;2.50;;;;;;;2.22;100.00;102677.59;4410289;32;20475;-74
2022/01/19 01:10:46;;;;;;;4.12;3.92;;;;;;;2.25;100.00;102692.34;4440825;31;20576;-75
2022/01/19 01:13:29;;;;;;;3.25;3.15;;;;;;;2.13;100.00;102687.84;4427303;32;20535;-74
2022/01/19 01:16:05;;;;;;;4.40;4.20;;;;;;;1.91;100.00;102651.25;4432883;32;20136;-75
2022/01/19 01:18:32;;;;;;;3.45;3.25;;;;;;;2.02;100.00;102686.81;4444506;32;20577;-76
2022/01/19 01:20:59;;;;;;;2.60;2.50;;;;;;;1.86;100.00;102688.28;4422088;32;20091;-75
2022/01/19 01:23:25;;;;;;;2.80;2.70;;;;;;;1.74;100.00;102691.53;4432380;32;20072;-76
2022/01/19 01:25:50;;;;;;;4.22;4.03;;;;;;;1.63;100.00;102687.91;4425017;32;20081;-74
2022/01/19 01:28:16;;;;;;;3.05;2.95;;;;;;;1.58;100.00;102691.28;4423011;32;20131;-74
2022/01/19 01:30:42;;;;;;;3.42;3.33;;;;;;;-0.34;100.00;102375.13;4443122;32;20478;-74
2022/01/19 01:33:07;;;;;;;2.70;2.60;;;;;;;1.36;100.00;102665.88;4436203;32;20063;-72
2022/01/19 01:35:33;;;;;;;2.90;2.80;;;;;;;1.34;100.00;102662.38;4425807;32;20064;-74
2022/01/19 01:37:58;;;;;;;2.80;2.70;;;;;;;1.24;100.00;102663.94;4429058;32;20088;-75
2022/01/19 01:40:25;;;;;;;2.80;2.70;;;;;;;0.75;100.00;102583.75;4433463;32;20068;-75
2022/01/19 01:42:53;;;;;;;4.80;4.60;;;;;;;1.01;100.00;102622.16;4427849;32;20064;-74
2022/01/19 01:45:24;;;;;;;2.80;2.70;;;;;;;1.24;100.00;102651.00;4431649;32;20154;-75
2022/01/19 01:47:55;;;;;;;4.45;4.25;;;;;;;0.18;100.00;102460.41;4426619;32;20097;-74
2022/01/19 01:55:48;;;;;;;4.75;4.55;;;;;;;0.93;100.00;102547.03;4445474;32;20074;-75
2022/01/19 01:58:13;;;;;;;2.97;2.87;;;;;;;1.79;100.00;102669.19;4426762;32;20061;-74
2022/01/19 02:00:39;;;;;;;3.12;3.03;;;;;;;1.79;100.00;102662.28;4430788;32;20075;-75
2022/01/19 02:03:04;;;;;;;2.70;2.60;;;;;;;1.92;100.00;102657.31;4424052;32;20055;-76
2022/01/19 02:05:32;;;;;;;2.70;2.60;;;;;;;1.65;100.00;102587.88;4426807;32;20570;-75
2022/01/19 02:08:05;;;;;;;3.10;3.00;;;;;;;1.97;100.00;102635.81;4429716;32;20060;-74
2022/01/19 02:16:35;;;;;;;4.30;4.10;;;;;;;1.80;100.00;102569.97;4447515;32;20148;-76
2022/01/19 02:24:08;;;;;;;2.83;2.72;;;;;;;2.16;100.00;102594.62;4449968;32;20079;-73
2022/01/19 02:42:40;;;;;;;2.50;2.40;;;;;;;2.51;99.65;102557.94;4435721;32;20460;-74
2022/01/19 02:49:58;;;;;;;2.80;2.70;;;;;;;2.24;99.46;102541.19;4436096;32;20909;-74
2022/01/19 02:52:23;;;;;;;3.17;3.08;;;;;;;1.01;98.98;102336.91;4429871;32;20072;-73
2022/01/19 02:54:49;;;;;;;4.30;4.10;;;;;;;1.65;99.94;102441.22;4423971;32;20088;-74
2022/01/19 02:57:15;;;;;;;2.80;2.70;;;;;;;1.45;100.00;102391.81;4425840;32;20068;-74
2022/01/19 03:10:34;;;;;;;2.80;2.70;;;;;;;2.37;99.35;102508.53;4436339;32;20083;-75
2022/01/19 03:12:59;;;;;;;3.30;3.20;;;;;;;2.36;99.59;102499.88;4426819;32;20084;-74
2022/01/19 03:15:25;;;;;;;3.42;3.22;;;;;;;1.22;99.56;102300.13;4424541;32;20091;-75
2022/01/19 03:17:50;;;;;;;4.72;4.53;;;;;;;2.08;99.49;102430.50;4417084;32;20083;-75
2022/01/19 03:20:16;;;;;;;3.00;2.90;;;;;;;2.47;99.46;102487.06;4428111;32;20103;-76
2022/01/19 03:25:25;;;;;;;2.90;2.80;;;;;;;-0.10;99.27;102059.03;4442217;32;20082;-76
2022/01/19 03:27:51;;;;;;;4.40;4.20;;;;;;;2.69;99.42;102488.13;4414852;32;20483;-74
2022/01/19 03:30:16;;;;;;;2.90;2.80;;;;;;;2.36;98.89;102422.16;4426758;32;20090;-76
2022/01/19 03:32:42;;;;;;;4.03;3.85;;;;;;;2.75;98.65;102476.97;4419697;32;20061;-77
2022/01/19 03:35:09;;;;;;;3.10;3.00;;;;;;;2.76;98.56;102474.34;4425957;32;20061;-76
2022/01/19 03:37:34;;;;;;;3.20;3.10;;;;;;;2.76;98.55;102482.13;4430514;32;20661;-75
2022/01/19 03:40:03;;;;;;;3.50;3.30;;;;;;;2.76;98.27;102483.87;4423353;32;20068;-74
2022/01/19 03:42:29;;;;;;;2.87;2.78;;;;;;;2.76;98.12;102479.53;4439922;32;20063;-76
2022/01/19 03:44:54;;;;;;;4.65;4.45;;;;;;;2.31;97.84;102404.84;4427265;32;20120;-74
2022/01/19 03:47:19;;;;;;;3.25;3.05;;;;;;;2.41;98.06;102417.03;4425705;32;20068;-76
2022/01/19 03:49:45;;;;;;;4.60;4.40;;;;;;;2.82;98.03;102477.87;4421206;32;20065;-74
2022/01/19 03:52:10;;;;;;;3.30;3.20;;;;;;;2.76;98.12;102452.75;4425130;32;20076;-74
2022/01/19 03:54:40;;;;;;;2.85;2.75;;;;;;;1.61;97.77;102270.37;4426388;32;20234;-75
2022/01/19 03:57:05;;;;;;;3.08;2.97;;;;;;;2.04;97.76;102309.62;4426396;32;20182;-75
2022/01/19 03:59:31;;;;;;;3.40;3.28;;;;;;;2.82;97.62;102436.38;4432571;32;20068;-75
2022/01/19 04:01:57;;;;;;;3.92;3.72;;;;;;;2.45;97.71;102382.53;4417498;32;20630;-76
2022/01/19 04:06:56;;;;;;;4.53;4.32;;;;;;;2.67;97.69;102414.69;4436118;32;20074;-74
2022/01/19 04:09:22;;;;;;;3.10;3.00;;;;;;;2.77;97.44;102437.22;4431544;32;20178;-76
2022/01/19 04:11:47;;;;;;;4.62;4.43;;;;;;;1.88;97.50;102300.84;4432176;32;20079;-74
2022/01/19 04:14:22;;;;;;;3.47;3.35;;;;;;;2.78;97.76;102435.50;4425739;32;20057;-76
2022/01/19 04:16:48;;;;;;;4.32;4.12;;;;;;;2.77;97.68;102439.81;4430166;32;20079;-73
2022/01/19 04:21:45;;;;;;;5.28;5.07;;;;;;;2.80;97.78;102450.19;4437636;32;20075;-74
2022/01/19 04:24:10;;;;;;;3.12;3.03;;;;;;;2.83;97.65;102438.09;4428805;32;20096;-75
2022/01/19 04:26:35;;;;;;;3.33;3.22;;;;;;;2.82;97.50;102445.03;4424658;32;20068;-75
2022/01/19 04:29:01;;;;;;;3.78;3.60;;;;;;;2.82;97.25;102437.25;4427388;32;20091;-76
2022/01/19 04:31:26;;;;;;;3.00;2.90;;;;;;;2.84;97.18;102437.28;4422241;32;20575;-76
2022/01/19 04:33:52;;;;;;;4.68;4.47;;;;;;;2.83;96.83;102439.00;4417027;32;20068;-75
2022/01/19 04:36:32;;;;;;;2.90;2.80;;;;;;;2.60;96.72;102386.94;4425460;32;20068;-74
2022/01/19 05:03:47;;;;;;;3.03;2.92;;;;;;;2.84;94.07;102396.63;4438512;32;20074;-76
2022/01/19 05:06:16;;;;;;;2.87;2.78;;;;;;;3.02;94.35;102408.00;4429749;32;20056;-75
2022/01/19 05:08:53;;;;;;;4.10;3.90;;;;;;;2.61;94.11;102334.28;4422305;32;20086;-74
2022/01/19 05:14:03;;;;;;;2.90;2.80;;;;;;;3.02;93.91;102393.31;4436927;32;20095;-74
2022/01/19 05:16:28;;;;;;;3.00;2.90;;;;;;;3.01;93.66;102399.37;4440590;32;20502;-77
2022/01/19 05:18:54;;;;;;;4.68;4.47;;;;;;;3.03;93.85;102394.16;4424324;32;20068;-73
2022/01/19 05:21:19;;;;;;;3.05;2.95;;;;;;;3.04;93.52;102382.94;4427732;32;20064;-74
2022/01/19 05:23:45;;;;;;;4.47;4.28;;;;;;;2.60;93.37;102301.44;4441902;32;20075;-72
2022/01/19 05:26:10;;;;;;;2.92;2.83;;;;;;;3.04;93.54;102365.66;4439604;32;20061;-74
2022/01/19 05:28:36;;;;;;;2.70;2.60;;;;;;;3.05;93.17;102372.59;4433703;32;21035;-75
2022/01/19 05:31:01;;;;;;;3.67;3.47;;;;;;;2.24;93.01;102232.94;4424539;32;20086;-75
2022/01/19 05:33:26;;;;;;;3.10;3.00;;;;;;;2.67;93.02;102320.50;4425823;32;20197;-75
2022/01/19 05:35:52;;;;;;;4.20;4.00;;;;;;;2.86;93.40;102337.88;4429985;32;20630;-74
2022/01/19 05:38:17;;;;;;;3.10;3.00;;;;;;;3.04;93.36;102385.53;4429105;32;20067;-73
2022/01/19 05:40:42;;;;;;;4.22;4.03;;;;;;;1.86;93.30;102166.22;4431266;32;20079;-73
2022/01/19 05:43:08;;;;;;;2.90;2.80;;;;;;;3.02;93.42;102357.00;4427692;32;20060;-75
2022/01/19 05:45:33;;;;;;;3.37;3.22;;;;;;;3.03;93.91;102358.75;4434046;32;20672;-74
2022/01/19 05:47:59;;;;;;;3.53;3.40;;;;;;;3.03;93.60;102350.97;4428956;32;20502;-74
2022/01/19 05:50:24;;;;;;;3.10;3.00;;;;;;;3.04;93.56;102346.62;4431820;32;20083;-75
2022/01/19 05:52:50;;;;;;;4.62;4.43;;;;;;;2.75;93.79;102296.34;4431539;32;20068;-74
2022/01/19 05:55:15;;;;;;;3.10;3.00;;;;;;;3.04;93.68;102342.31;4427535;32;20548;-75
2022/01/19 05:57:41;;;;;;;3.92;3.75;;;;;;;3.04;93.48;102342.31;4433084;32;20148;-74
2022/01/19 06:00:07;;;;;;;3.00;2.90;;;;;;;2.88;93.21;102314.56;4424136;32;20066;-74
2022/01/19 06:02:32;;;;;;;3.10;3.00;;;;;;;3.06;93.71;102334.56;4434902;32;20083;-75
2022/01/19 06:04:58;;;;;;;3.20;3.10;;;;;;;3.09;93.45;102330.25;4429468;32;20078;-74
2022/01/19 06:07:28;;;;;;;2.90;2.80;;;;;;;3.07;93.23;102321.59;4428386;32;20051;-74
2022/01/19 06:10:03;;;;;;;4.30;4.10;;;;;;;3.09;92.94;102331.97;4428006;32;20071;-75
2022/01/19 06:12:28;;;;;;;3.10;3.00;;;;;;;3.11;92.62;102328.53;4429454;32;20220;-74
2022/01/19 06:14:54;;;;;;;4.68;4.47;;;;;;;3.12;92.43;102319.88;4429736;32;20063;-72
2022/01/19 06:17:19;;;;;;;3.00;2.90;;;;;;;3.13;91.74;102303.47;4431287;32;20947;-73
2022/01/19 06:19:47;;;;;;;4.28;4.07;;;;;;;3.14;91.65;102291.34;4428991;32;20131;-74
2022/01/19 06:22:14;;;;;;;2.90;2.80;;;;;;;3.16;91.47;102294.81;4431964;32;20503;-73
2022/01/19 06:24:39;;;;;;;3.37;3.28;;;;;;;3.16;91.56;102300.87;4423237;32;20072;-74
2022/01/19 06:27:05;;;;;;;3.28;3.08;;;;;;;2.87;91.38;102253.22;4423560;32;20063;-73
2022/01/19 06:29:30;;;;;;;3.67;3.37;;;;;;;3.14;91.42;102287.03;4426288;32;20590;-73
2022/01/19 06:31:55;;;;;;;4.35;4.15;;;;;;;3.15;91.17;102290.50;4424671;32;20072;-74
2022/01/19 06:34:21;;;;;;;2.97;2.87;;;;;;;3.13;91.55;102293.09;4426584;32;20130;-74
2022/01/19 06:36:48;;;;;;;4.45;4.25;;;;;;;2.73;91.23;102222.87;4424795;32;20092;-74
2022/01/19 06:39:13;;;;;;;3.22;3.12;;;;;;;3.13;91.39;102287.91;4424668;32;20087;-74
2022/01/19 06:41:39;;;;;;;3.17;3.08;;;;;;;2.57;91.15;102205.53;4428040;32;20123;-74
2022/01/19 06:44:05;;;;;;;2.97;2.87;;;;;;;3.11;91.43;102283.56;4426605;32;20639;-73
2022/01/19 06:46:31;;;;;;;3.42;3.28;;;;;;;3.06;91.42;102287.84;4425929;32;20578;-74
2022/01/19 06:48:57;;;;;;;3.30;3.20;;;;;;;3.03;91.66;102282.66;4425320;32;20366;-75
2022/01/19 06:51:22;;;;;;;3.22;3.12;;;;;;;3.03;91.84;102286.12;4424771;32;20154;-74
2022/01/19 06:53:47;;;;;;;4.65;4.45;;;;;;;2.03;91.85;102119.75;4438004;32;20071;-74
2022/01/19 06:56:13;;;;;;;2.87;2.78;;;;;;;2.41;92.17;102173.50;4420782;32;20542;-74
2022/01/19 06:58:38;;;;;;;3.72;3.53;;;;;;;3.00;92.59;102274.00;4427954;32;20099;-75
2022/01/19 07:01:03;;;;;;;3.00;2.90;;;;;;;2.95;92.61;102275.72;4426679;32;20563;-74
2022/01/19 07:03:31;;;;;;;3.08;2.97;;;;;;;2.99;92.86;102279.19;4424682;32;20080;-74
2022/01/19 07:05:57;;;;;;;3.70;3.60;;;;;;;2.98;93.00;102274.84;4427290;32;20702;-73
2022/01/19 07:08:22;;;;;;;2.72;2.62;;;;;;;2.98;92.95;102278.31;4426776;32;20068;-75
2022/01/19 07:10:48;;;;;;;4.55;4.35;;;;;;;2.96;93.12;102292.13;4425071;32;20628;-75
2022/01/19 07:13:13;;;;;;;4.72;4.53;;;;;;;2.56;93.42;102222.78;4425885;32;20628;-74
2022/01/19 07:15:40;;;;;;;3.22;3.10;;;;;;;2.18;93.14;102157.78;4423519;32;20455;-75
2022/01/19 07:18:05;;;;;;;2.80;2.70;;;;;;;2.05;93.03;102138.75;4429871;32;20735;-76
2022/01/19 07:20:31;;;;;;;3.75;3.25;;;;;;;2.95;92.88;102293.88;4421280;32;20091;-75
2022/01/19 07:22:57;;;;;;;3.80;3.60;;;;;;;2.94;92.93;102286.94;4423189;32;20083;-75
2022/01/19 07:25:22;;;;;;;2.90;2.80;;;;;;;2.96;93.41;102277.44;4442820;32;20569;-74
2022/01/19 07:27:48;;;;;;;4.22;4.03;;;;;;;2.98;93.52;102280.03;4417147;32;20068;-74
2022/01/19 07:30:13;;;;;;;2.80;2.70;;;;;;;2.97;93.10;102276.59;4426851;32;20061;-75
2022/01/19 07:32:38;;;;;;;3.20;3.10;;;;;;;2.96;92.38;102276.56;4415798;32;20079;-73
2022/01/19 07:35:05;;;;;;;2.90;2.80;;;;;;;2.94;92.25;102267.91;4429886;32;20738;-72
2022/01/19 07:37:30;;;;;;;3.28;3.17;;;;;;;2.97;92.23;102268.81;4419899;32;20112;-73
2022/01/19 07:39:57;;;;;;;3.50;3.40;;;;;;;2.46;91.98;102178.69;4427854;32;20438;-71
2022/01/19 07:42:23;;;;;;;3.10;3.00;;;;;;;2.96;91.53;102254.09;4423127;32;20069;-74
2022/01/19 07:44:48;;;;;;;4.37;4.18;;;;;;;2.97;91.41;102252.38;4418985;32;20091;-74
2022/01/19 07:47:13;;;;;;;2.83;2.72;;;;;;;2.90;91.13;102235.91;4417656;32;20068;-74
2022/01/19 07:49:39;;;;;;;3.08;2.97;;;;;;;1.89;90.73;102088.59;4422009;32;20527;-74
2022/01/19 07:52:04;;;;;;;3.00;2.90;;;;;;;3.02;90.73;102242.88;4422658;32;20091;-73
2022/01/19 07:54:30;;;;;;;2.90;2.80;;;;;;;3.05;90.21;102247.22;4418141;32;20470;-74
2022/01/19 07:56:55;;;;;;;3.85;3.72;;;;;;;3.04;89.89;102245.50;4419932;32;20855;-73
2022/01/19 07:59:21;;;;;;;3.47;3.28;;;;;;;3.00;89.95;102245.47;4420439;32;20141;-73
2022/01/19 08:01:46;;;;;;;4.62;4.43;;;;;;;3.04;89.91;102242.91;4429696;32;20609;-74
2022/01/19 08:04:12;;;;;;;2.92;2.83;;;;;;;3.04;90.11;102240.31;4420858;32;20843;-73
2022/01/19 08:06:40;;;;;;;2.95;2.85;;;;;;;2.92;90.45;102205.66;4421595;32;20068;-74
2022/01/19 08:09:07;;;;;;;2.87;2.78;;;;;;;3.05;90.40;102229.94;4422519;32;20096;-75
2022/01/19 08:11:32;;;;;;;3.15;3.05;;;;;;;3.06;90.22;102233.41;4436756;32;20502;-77
2022/01/19 08:13:57;;;;;;;2.90;2.80;;;;;;;2.86;90.09;102195.28;4418820;32;20091;-74
2022/01/19 08:16:23;;;;;;;3.30;3.20;;;;;;;2.96;90.18;102203.97;4419356;32;20110;-73
2022/01/19 08:18:48;;;;;;;4.40;4.20;;;;;;;3.07;90.42;102225.63;4428971;32;20072;-76
2022/01/19 08:21:14;;;;;;;3.00;2.90;;;;;;;3.09;90.24;102228.22;4430179;32;20095;-74
2022/01/19 08:23:39;;;;;;;3.58;3.45;;;;;;;2.79;90.20;102165.87;4430924;32;20075;-73
2022/01/19 08:26:05;;;;;;;3.60;3.40;;;;;;;2.64;90.48;102136.44;4423713;32;20067;-73
2022/01/19 08:28:31;;;;;;;3.20;3.10;;;;;;;3.12;90.01;102223.03;4423616;32;20202;-75
2022/01/19 08:30:56;;;;;;;3.42;3.33;;;;;;;3.14;90.02;102226.50;4426557;32;20373;-75
2022/01/19 08:33:21;;;;;;;3.10;3.00;;;;;;;3.15;90.26;102225.66;4423789;32;20099;-73
2022/01/19 08:35:47;;;;;;;4.85;4.65;;;;;;;3.12;89.74;102229.09;4424900;32;20621;-73
2022/01/19 08:38:12;;;;;;;2.95;2.85;;;;;;;3.07;89.55;102220.44;4429862;32;20457;-73
2022/01/19 08:40:37;;;;;;;3.22;3.12;;;;;;;3.03;89.38;102203.13;4425116;32;20075;-74
2022/01/19 08:43:03;;;;;;;3.47;3.30;;;;;;;3.12;89.12;102226.50;4425313;32;20067;-74
2022/01/19 08:45:29;;;;;;;3.20;3.10;;;;;;;3.10;89.07;102223.03;4438957;32;20946;-75
2022/01/19 08:47:54;;;;;;;4.37;4.18;;;;;;;3.03;89.13;102202.25;4420096;32;20414;-76
2022/01/19 08:50:19;;;;;;;2.97;2.87;;;;;;;3.18;88.88;102223.91;4430616;32;20500;-73
2022/01/19 08:52:45;;;;;;;4.95;4.75;;;;;;;3.20;89.13;102226.53;4438861;32;20063;-71
2022/01/19 08:55:10;;;;;;;3.30;3.20;;;;;;;3.12;88.95;102210.06;4432724;32;20085;-74
2022/01/19 08:57:36;;;;;;;3.00;2.90;;;;;;;2.02;88.78;102053.25;4427798;32;20071;-74
2022/01/19 09:00:03;;;;;;;3.67;3.10;;;;;;;3.26;88.43;102229.13;4426855;32;20300;-73
2022/01/19 09:02:29;;;;;;;3.37;3.28;;;;;;;2.94;88.09;102180.62;4431077;32;20071;-73
2022/01/19 09:04:54;;;;;;;4.60;4.35;;;;;;;2.24;88.25;102050.78;4427286;32;20160;-75
2022/01/19 09:07:20;;;;;;;3.10;3.00;;;;;;;3.23;87.98;102215.28;4427952;32;20068;-74
2022/01/19 09:09:45;;;;;;;4.60;4.40;;;;;;;3.31;87.99;102239.53;4428823;32;20059;-74
2022/01/19 09:12:10;;;;;;;3.12;3.03;;;;;;;3.33;88.02;102206.69;4427568;32;20609;-73
2022/01/19 09:14:36;;;;;;;3.00;2.90;;;;;;;3.35;88.33;102194.56;4430826;32;20082;-75
2022/01/19 09:17:07;;;;;;;2.85;2.75;;;;;;;3.19;88.14;102163.41;4420893;32;20448;-74
2022/01/19 09:19:32;;;;;;;3.40;3.10;;;;;;;3.38;88.12;102191.97;4444890;32;20076;-74
2022/01/19 09:21:58;;;;;;;3.75;3.45;;;;;;;3.40;87.72;102182.47;4426063;32;20079;-75
2022/01/19 09:24:23;;;;;;;2.90;2.80;;;;;;;3.26;87.55;102150.44;4423808;32;20075;-75
2022/01/19 09:26:48;;;;;;;4.75;4.55;;;;;;;3.47;87.24;102175.53;4425587;32;20655;-75
2022/01/19 09:29:14;;;;;;;3.20;3.10;;;;;;;3.52;87.66;102174.69;4419669;32;20077;-75
2022/01/19 09:31:41;;;;;;;3.65;3.50;;;;;;;3.59;87.29;102172.97;4428480;32;20380;-75
2022/01/19 09:34:14;;;;;;;3.17;3.08;;;;;;;3.58;87.28;102169.50;4422984;32;20223;-72
2022/01/19 09:36:46;;;;;;;4.22;4.03;;;;;;;3.66;87.09;102163.44;4428197;32;20132;-74
2022/01/19 09:39:13;;;;;;;3.20;3.10;;;;;;;3.63;86.95;102140.06;4433564;32;20656;-73
2022/01/19 09:41:39;;;;;;;3.20;3.10;;;;;;;2.76;86.33;101999.94;4428620;32;20072;-74
2022/01/19 09:44:04;;;;;;;3.20;3.10;;;;;;;3.76;86.18;102152.19;4438856;32;20071;-74
2022/01/19 09:46:30;;;;;;;3.37;3.28;;;;;;;3.79;86.07;102158.25;4428222;32;20334;-74
2022/01/19 09:48:56;;;;;;;3.47;3.37;;;;;;;3.78;85.76;102147.88;4425679;32;21023;-74
2022/01/19 09:51:22;;;;;;;3.10;3.00;;;;;;;3.39;84.82;102088.19;4429562;32;20191;-73
2022/01/19 09:53:48;;;;;;;4.65;4.45;;;;;;;3.74;84.78;102135.75;4421317;32;20856;-75
2022/01/19 09:56:17;;;;;;;3.47;3.37;;;;;;;3.82;84.21;102153.94;4441273;32;20079;-72
2022/01/19 09:58:42;;;;;;;4.37;4.18;;;;;;;3.82;84.17;102144.41;4430420;32;20083;-73
2022/01/19 10:01:08;;;;;;;3.12;3.03;;;;;;;3.82;84.13;102139.19;4427116;32;20083;-72
2022/01/19 10:03:33;;;;;;;3.15;3.05;;;;;;;3.63;84.32;102098.53;4428754;32;20068;-74
2022/01/19 10:06:02;;;;;;;3.20;3.10;;;;;;;3.68;84.35;102092.47;4425267;32;20600;-74
2022/01/19 10:08:28;;;;;;;3.00;2.90;;;;;;;3.84;84.14;102126.22;4443573;32;20175;-73
2022/01/19 10:11:14;;;;;;;4.93;4.55;;;;;;;3.73;84.22;102108.06;4445555;31;20071;-73
2022/01/19 10:19:22;;;;;;;3.20;3.10;;;;;;;3.74;84.11;102114.97;4445591;32;20149;-76
2022/01/19 10:22:00;;;;;;;4.75;4.55;;;;;;;3.79;84.13;102113.25;4423266;32;20064;-73
2022/01/19 10:24:52;;;;;;;3.17;3.08;;;;;;;3.62;84.14;102079.50;4431767;32;20142;-74
2022/01/19 10:27:26;;;;;;;3.10;3.00;;;;;;;3.85;84.45;102091.59;4412078;32;20209;-74
2022/01/19 10:30:16;;;;;;;4.03;3.85;;;;;;;3.91;84.07;102087.25;4427291;32;20724;-73
2022/01/19 10:32:45;;;;;;;4.25;4.07;;;;;;;3.99;84.24;102088.09;4416299;32;20094;-74
2022/01/19 10:35:38;;;;;;;3.90;3.70;;;;;;;4.11;82.97;102084.63;4431529;32;20069;-75
2022/01/19 10:38:34;;;;;;;3.03;2.92;;;;;;;4.17;82.83;102075.94;4412704;32;20710;-73
2022/01/19 10:40:59;;;;;;;2.90;2.80;;;;;;;4.18;82.48;102068.13;4395094;32;20433;-74
2022/01/19 10:43:40;;;;;;;4.45;3.20;;;;;;;4.24;82.37;102066.38;4419025;32;20150;-74
2022/01/19 10:46:29;;;;;;;3.47;3.37;;;;;;;4.30;82.19;102061.16;4410558;32;20344;-74
2022/01/19 10:49:09;;;;;;;4.45;4.25;;;;;;;4.20;81.83;102036.94;4423634;32;20137;-75
2022/01/19 10:51:37;;;;;;;3.40;3.30;;;;;;;4.22;81.60;102030.00;4413263;32;20081;-74
2022/01/19 10:54:07;;;;;;;3.30;3.20;;;;;;;4.42;81.93;102052.44;4408980;32;20587;-73
2022/01/19 10:56:32;;;;;;;3.60;3.40;;;;;;;4.37;81.72;102057.63;4409932;32;20861;-73
2022/01/19 10:59:03;;;;;;;3.37;3.28;;;;;;;4.23;81.50;102025.66;4390465;32;20073;-74
2022/01/19 11:01:51;;;;;;;3.10;3.00;;;;;;;4.00;80.76;102004.09;4391920;32;20143;-73
2022/01/19 11:04:19;;;;;;;3.47;3.28;;;;;;;4.35;81.58;102049.88;4424326;32;20466;-75
2022/01/19 11:06:49;;;;;;;4.28;4.07;;;;;;;4.27;80.80;102049.03;4434818;32;20862;-72
2022/01/19 11:09:15;;;;;;;3.17;3.08;;;;;;;4.24;81.05;102035.19;4408581;32;20084;-72
2022/01/19 11:11:43;;;;;;;4.47;4.28;;;;;;;4.28;81.69;102029.97;4416454;32;20083;-75
2022/01/19 11:14:08;;;;;;;3.47;3.37;;;;;;;4.22;81.17;102024.81;4396550;32;20624;-74
2022/01/19 11:16:34;;;;;;;3.17;3.08;;;;;;;3.99;81.27;101966.03;4412484;32;20289;-73
2022/01/19 11:18:59;;;;;;;3.83;3.65;;;;;;;3.39;80.62;101858.97;4404763;32;20079;-75
2022/01/19 11:21:25;;;;;;;3.20;3.10;;;;;;;4.31;81.24;102016.97;4408192;32;20867;-75
2022/01/19 11:24:05;;;;;;;5.47;5.07;;;;;;;4.17;81.23;101988.47;4397962;32;20337;-76
2022/01/19 11:26:30;;;;;;;3.55;3.45;;;;;;;4.43;80.90;102009.97;4413071;32;20067;-75
2022/01/19 11:28:56;;;;;;;3.75;3.65;;;;;;;4.47;80.52;102006.47;4410127;32;20498;-73
2022/01/19 11:31:24;;;;;;;3.40;3.30;;;;;;;4.53;80.86;101993.44;4414744;32;20356;-73
2022/01/19 11:33:52;;;;;;;4.72;4.53;;;;;;;4.59;81.08;101983.88;4445924;32;20589;-73
2022/01/19 11:36:34;;;;;;;3.20;3.10;;;;;;;4.56;80.91;101970.03;4426783;32;20167;-75
2022/01/19 11:39:17;;;;;;;3.28;3.17;;;;;;;4.25;80.38;101936.47;4430254;32;20362;-74
2022/01/19 11:41:54;;;;;;;4.60;4.40;;;;;;;4.62;80.26;101982.13;4451106;32;20081;-74
2022/01/19 11:44:28;;;;;;;3.10;3.00;;;;;;;4.66;81.06;101981.25;4452166;32;20483;-74
2022/01/19 11:46:55;;;;;;;4.68;4.47;;;;;;;4.60;80.01;101972.59;4447173;32;20071;-73
2022/01/19 11:49:49;;;;;;;3.10;3.00;;;;;;;4.43;80.26;101970.97;4424996;32;20122;-73
2022/01/19 11:52:16;;;;;;;4.20;3.90;;;;;;;3.73;79.99;101845.84;4452470;32;20170;-75
2022/01/19 11:54:41;;;;;;;4.00;3.83;;;;;;;4.30;79.86;101941.63;4425055;32;20347;-75
2022/01/19 11:57:11;;;;;;;3.30;3.20;;;;;;;4.38;80.95;101945.03;4427514;32;20433;-72
2022/01/19 11:59:45;;;;;;;3.50;3.40;;;;;;;4.36;81.23;101938.97;4423525;32;20148;-73
2022/01/19 12:02:32;;;;;;;3.12;3.03;;;;;;;4.35;80.61;101948.50;4448241;32;20507;-74
2022/01/19 12:04:57;;;;;;;4.28;4.07;;;;;;;4.31;80.24;101932.94;4449296;32;21050;-73
2022/01/19 12:07:48;;;;;;;4.40;4.20;;;;;;;4.13;81.44;101897.53;4453028;32;20068;-72
2022/01/19 12:10:30;;;;;;;3.22;3.12;;;;;;;3.93;80.82;101872.56;4432444;32;20633;-74
2022/01/19 12:13:54;;;;;;;3.60;3.50;;;;;;;4.18;81.47;101913.97;4448216;31;20055;-74
2022/01/19 12:19:10;;;;;;;5.53;5.05;;;;;;;4.10;81.24;101902.75;4435898;32;20356;-74
2022/01/19 12:21:41;;;;;;;3.30;3.20;;;;;;;4.13;81.89;101905.31;4448267;32;20163;-73
2022/01/19 12:24:29;;;;;;;3.22;3.12;;;;;;;4.11;81.69;101909.66;4425834;32;20064;-71
2022/01/19 12:27:14;;;;;;;4.75;4.55;;;;;;;4.08;82.10;101897.56;4434771;32;20172;-72
2022/01/19 12:29:40;;;;;;;4.15;3.95;;;;;;;4.07;82.78;101892.38;4450307;32;20446;-74
2022/01/19 12:32:08;;;;;;;3.30;3.20;;;;;;;4.07;81.77;101884.56;4440176;32;20130;-74
2022/01/19 12:34:54;;;;;;;3.05;2.95;;;;;;;3.94;82.00;101869.06;4438430;32;20087;-75
2022/01/19 12:37:34;;;;;;;3.33;3.22;;;;;;;4.09;82.13;101888.03;4422732;32;20072;-74
2022/01/19 12:40:24;;;;;;;3.35;3.25;;;;;;;4.10;81.94;101879.38;4452313;32;20098;-72
2022/01/19 12:42:57;;;;;;;4.70;4.50;;;;;;;3.76;82.33;101831.09;4425771;32;21170;-74
2022/01/19 12:45:47;;;;;;;3.10;3.00;;;;;;;3.95;82.94;101870.81;4425378;32;20064;-74
2022/01/19 12:48:13;;;;;;;3.00;2.90;;;;;;;3.77;82.42;101822.44;4443493;32;20330;-72
2022/01/19 12:50:39;;;;;;;3.50;3.37;;;;;;;4.14;82.61;101868.09;4421463;32;20072;-73
2022/01/19 12:53:10;;;;;;;4.55;4.25;;;;;;;4.13;83.00;101866.34;4432447;32;22437;-76
2022/01/19 12:55:41;;;;;;;4.12;3.87;;;;;;;3.24;82.87;101718.94;4428252;32;20402;-74
2022/01/19 12:58:12;;;;;;;4.00;3.80;;;;;;;3.94;82.01;101837.06;4439679;32;20081;-74
2022/01/19 13:00:37;;;;;;;3.28;3.17;;;;;;;4.05;82.05;101860.34;4428095;32;20320;-74
2022/01/19 13:03:13;;;;;;;3.83;3.65;;;;;;;4.07;81.84;101866.41;4426588;32;20112;-72
2022/01/19 13:05:45;;;;;;;3.92;3.72;;;;;;;3.81;81.85;101831.09;4436877;32;20095;-74
2022/01/19 13:08:11;;;;;;;2.92;2.83;;;;;;;4.03;82.33;101850.00;4446569;32;20631;-72
2022/01/19 13:10:45;;;;;;;3.33;3.22;;;;;;;2.70;82.00;101644.00;4426647;32;20443;-73